createdAt,value
2023-05-10T00:01:07.109Z,6.09
2023-05-10T00:03:34.088Z,6.11
2023-05-10T00:06:01.062Z,6.09
2023-05-10T00:08:27.919Z,6.09
2023-05-10T00:10:54.834Z,6.03
2023-05-10T00:13:21.937Z,6.04
2023-05-10T00:15:48.841Z,5.99
2023-05-10T00:18:15.766Z,5.90
2023-05-10T00:20:42.762Z,5.84
2023-05-10T00:23:09.665Z,5.79
2023-05-10T00:25:36.558Z,5.66
2023-05-10T00:28:03.430Z,5.69
2023-05-10T00:30:30.770Z,5.43
2023-05-10T00:32:57.668Z,5.52
2023-05-10T00:35:24.717Z,5.36
2023-05-10T00:37:51.669Z,5.39
2023-05-10T00:40:18.918Z,5.58
2023-05-10T00:42:49.778Z,5.43
2023-05-10T00:45:16.635Z,5.36
2023-05-10T00:47:43.689Z,5.30
2023-05-10T00:50:11.009Z,5.39
2023-05-10T00:52:38.186Z,5.40
2023-05-10T00:55:06.855Z,5.33
2023-05-10T00:57:33.871Z,5.42
2023-05-10T01:00:00.877Z,5.41
2023-05-10T01:02:28.067Z,5.48
2023-05-10T01:04:55.546Z,5.36
2023-05-10T01:07:22.514Z,5.40
2023-05-10T01:09:49.424Z,5.26
2023-05-10T01:12:16.535Z,5.43
2023-05-10T01:14:44.186Z,5.36
2023-05-10T01:17:13.354Z,5.13
2023-05-10T01:19:40.610Z,5.26
2023-05-10T01:22:48.491Z,5.41
2023-05-10T01:25:38.612Z,5.14
2023-05-10T01:28:17.722Z,5.29
2023-05-10T01:31:07.512Z,5.24
2023-05-10T01:33:42.780Z,5.23
2023-05-10T01:36:18.752Z,5.37
2023-05-10T01:38:53.993Z,5.35
2023-05-10T01:41:44.990Z,5.38
2023-05-10T01:44:21.613Z,5.44
2023-05-10T01:46:59.337Z,5.41
2023-05-10T01:49:35.704Z,5.43
2023-05-10T01:52:10.572Z,5.56
2023-05-10T01:54:42.736Z,5.51
2023-05-10T01:57:11.899Z,5.61
2023-05-10T01:59:41.101Z,5.50
2023-05-10T02:02:09.771Z,5.75
2023-05-10T02:04:39.576Z,5.70
2023-05-10T02:07:09.568Z,5.74
2023-05-10T02:09:38.059Z,5.94
2023-05-10T02:12:07.450Z,5.98
2023-05-10T02:14:38.105Z,5.99
2023-05-10T02:17:08.714Z,6.07
2023-05-10T02:19:39.215Z,6.15
2023-05-10T02:22:06.952Z,6.26
2023-05-10T02:24:36.000Z,6.28
2023-05-10T02:27:05.002Z,6.42
2023-05-10T02:29:33.615Z,6.52
2023-05-10T02:32:01.409Z,6.64
2023-05-10T02:34:29.244Z,6.75
2023-05-10T02:36:57.180Z,6.57
2023-05-10T02:39:25.860Z,6.52
2023-05-10T02:41:54.455Z,6.90
2023-05-10T02:44:23.567Z,6.94
2023-05-10T02:46:50.980Z,6.88
2023-05-10T02:49:18.150Z,7.31
2023-05-10T02:51:59.351Z,7.52
2023-05-10T02:54:31.386Z,8.46
2023-05-10T02:57:01.511Z,10.22
2023-05-10T02:59:28.677Z,11.28
2023-05-10T03:01:55.690Z,10.95
2023-05-10T03:04:23.094Z,10.90
2023-05-10T03:06:52.064Z,10.72
2023-05-10T03:09:20.007Z,11.03
2023-05-10T03:12:08.245Z,12.28
2023-05-10T03:14:50.715Z,13.23
2023-05-10T03:17:30.322Z,13.76
2023-05-10T03:20:03.997Z,14.59
2023-05-10T03:22:56.519Z,14.56
2023-05-10T03:25:25.586Z,14.86
2023-05-10T03:27:53.804Z,15.48
2023-05-10T03:30:21.337Z,15.53
2023-05-10T03:32:48.388Z,15.72
2023-05-10T03:35:17.720Z,16.86
2023-05-10T03:37:45.103Z,16.69
2023-05-10T03:40:12.580Z,15.33
2023-05-10T03:42:41.966Z,15.30
2023-05-10T03:45:09.750Z,15.65
2023-05-10T03:47:36.940Z,15.50
2023-05-10T03:50:04.511Z,14.90
2023-05-10T03:52:31.528Z,14.69
2023-05-10T03:54:58.493Z,14.73
2023-05-10T03:57:25.471Z,14.40
2023-05-10T03:59:52.553Z,14.03
2023-05-10T04:02:19.549Z,13.58
2023-05-10T04:04:46.547Z,13.20
2023-05-10T04:07:13.548Z,13.29
2023-05-10T04:09:40.681Z,13.22
2023-05-10T04:12:10.137Z,12.67
2023-05-10T04:14:37.960Z,12.43
2023-05-10T04:17:05.013Z,11.91
2023-05-10T04:19:32.832Z,11.71
2023-05-10T04:22:00.039Z,11.87
2023-05-10T04:24:26.962Z,11.62
2023-05-10T04:26:57.642Z,11.72
2023-05-10T04:29:24.963Z,11.44
2023-05-10T04:31:51.894Z,11.37
2023-05-10T04:34:18.852Z,11.46
2023-05-10T04:36:45.699Z,11.11
2023-05-10T04:39:12.720Z,11.13
2023-05-10T04:41:41.067Z,10.96
2023-05-10T04:44:08.074Z,10.92
2023-05-10T04:46:35.006Z,10.60
2023-05-10T04:49:01.961Z,10.79
2023-05-10T04:51:28.818Z,10.49
2023-05-10T04:54:05.066Z,10.80
2023-05-10T04:56:33.265Z,11.16
2023-05-10T04:59:00.438Z,11.11
2023-05-10T05:01:27.414Z,11.04
2023-05-10T05:03:54.359Z,11.24
2023-05-10T05:06:21.614Z,11.03
2023-05-10T05:08:48.466Z,11.39
2023-05-10T05:11:15.388Z,11.52
2023-05-10T05:13:42.279Z,11.91
2023-05-10T05:16:09.335Z,11.85
2023-05-10T05:18:36.160Z,11.94
2023-05-10T05:21:03.250Z,11.92
2023-05-10T05:23:30.141Z,12.25
2023-05-10T05:25:57.205Z,12.65
2023-05-10T05:28:24.087Z,12.51
2023-05-10T05:30:51.037Z,12.69
2023-05-10T05:33:17.982Z,12.67
2023-05-10T05:35:44.980Z,12.95
2023-05-10T05:38:11.831Z,13.23
2023-05-10T05:40:38.736Z,12.84
2023-05-10T05:43:05.628Z,12.75
2023-05-10T05:45:32.764Z,13.21
2023-05-10T05:47:59.935Z,13.49
2023-05-10T05:50:26.937Z,13.03
2023-05-10T05:52:53.803Z,13.24
2023-05-10T05:55:20.734Z,13.33
2023-05-10T05:57:47.628Z,13.61
2023-05-10T06:00:15.050Z,13.54
2023-05-10T06:02:41.857Z,13.16
2023-05-10T06:05:09.434Z,13.20
2023-05-10T06:07:36.346Z,13.55
2023-05-10T06:10:03.572Z,13.56
2023-05-10T06:12:30.467Z,13.67
2023-05-10T06:14:57.528Z,13.60
2023-05-10T06:17:24.401Z,13.75
2023-05-10T06:19:51.478Z,13.89
2023-05-10T06:22:18.367Z,14.14
2023-05-10T06:24:45.359Z,14.11
2023-05-10T06:27:12.193Z,14.11
2023-05-10T06:29:39.137Z,14.35
2023-05-10T06:32:06.031Z,14.55
2023-05-10T06:34:32.940Z,14.68
2023-05-10T06:36:59.822Z,14.37
2023-05-10T06:39:26.748Z,14.01
2023-05-10T06:41:53.628Z,14.12
2023-05-10T06:44:20.530Z,14.37
2023-05-10T06:46:47.499Z,14.55
2023-05-10T06:49:14.465Z,14.71
2023-05-10T06:51:41.408Z,15.10
2023-05-10T06:54:08.350Z,15.21
2023-05-10T06:56:35.209Z,15.32
2023-05-10T06:59:02.145Z,15.13
2023-05-10T07:01:29.074Z,15.32
2023-05-10T07:03:56.161Z,15.08
2023-05-10T07:06:32.931Z,14.98
2023-05-10T07:09:01.477Z,15.46
2023-05-10T07:11:28.411Z,15.50
2023-05-10T07:13:55.327Z,15.02
2023-05-10T07:16:22.247Z,14.64
2023-05-10T07:18:49.244Z,14.91
2023-05-10T07:21:16.203Z,14.20
2023-05-10T07:23:45.141Z,14.62
2023-05-10T07:26:12.176Z,15.07
2023-05-10T07:28:39.146Z,14.82
2023-05-10T07:31:06.164Z,14.14
2023-05-10T07:33:33.089Z,14.24
2023-05-10T07:35:59.924Z,14.62
2023-05-10T07:38:26.949Z,14.57
2023-05-10T07:40:53.797Z,14.80
2023-05-10T07:43:20.712Z,14.78
2023-05-10T07:45:47.561Z,14.71
2023-05-10T07:48:14.525Z,14.36
2023-05-10T07:50:41.425Z,14.95
2023-05-10T07:53:08.413Z,14.84
2023-05-10T07:55:35.832Z,14.39
2023-05-10T07:58:02.844Z,14.91
2023-05-10T08:00:29.778Z,15.58
2023-05-10T08:02:56.961Z,15.26
2023-05-10T08:05:23.850Z,15.45
2023-05-10T08:07:51.097Z,15.91
2023-05-10T08:10:18.026Z,15.83
2023-05-10T08:12:45.127Z,15.21
2023-05-10T08:15:12.049Z,15.61
2023-05-10T08:17:39.046Z,15.13
2023-05-10T08:20:06.455Z,15.47
2023-05-10T08:22:33.427Z,15.39
2023-05-10T08:25:00.257Z,15.59
2023-05-10T08:27:27.365Z,16.12
2023-05-10T08:29:54.208Z,15.95
2023-05-10T08:32:21.150Z,15.90
2023-05-10T08:34:48.012Z,16.26
2023-05-10T08:37:15.129Z,15.93
2023-05-10T08:39:42.040Z,15.99
2023-05-10T08:42:10.435Z,15.83
2023-05-10T08:44:38.169Z,15.36
2023-05-10T08:47:09.538Z,15.29
2023-05-10T08:49:38.711Z,15.10
2023-05-10T08:52:08.216Z,15.10
2023-05-10T08:54:35.323Z,15.35
2023-05-10T08:57:02.764Z,15.19
2023-05-10T08:59:30.070Z,15.72
2023-05-10T09:01:58.877Z,15.23
2023-05-10T09:04:26.134Z,15.25
2023-05-10T09:06:53.435Z,14.95
2023-05-10T09:09:21.463Z,15.47
2023-05-10T09:11:49.018Z,15.76
2023-05-10T09:14:16.429Z,15.51
2023-05-10T09:16:43.749Z,15.78
2023-05-10T09:19:11.375Z,15.74
2023-05-10T09:21:38.438Z,16.49
2023-05-10T09:24:06.617Z,16.63
2023-05-10T09:26:33.954Z,16.73
2023-05-10T09:29:02.307Z,16.86
2023-05-10T09:31:52.284Z,16.63
2023-05-10T09:34:21.012Z,17.09
2023-05-10T09:36:58.033Z,17.07
2023-05-10T09:39:35.484Z,16.93
2023-05-10T09:42:10.029Z,16.93
2023-05-10T09:44:37.631Z,17.29
2023-05-10T09:47:05.122Z,16.82
2023-05-10T09:49:32.132Z,17.02
2023-05-10T09:52:07.205Z,17.51
2023-05-10T09:54:35.101Z,17.68
2023-05-10T09:57:02.695Z,17.33
2023-05-10T09:59:30.369Z,16.96
2023-05-10T10:02:00.979Z,16.96
2023-05-10T10:04:29.951Z,16.95
2023-05-10T10:07:02.429Z,16.59
2023-05-10T10:09:30.073Z,17.19
2023-05-10T10:11:57.292Z,17.47
2023-05-10T10:14:25.192Z,17.56
2023-05-10T10:17:05.522Z,17.30
2023-05-10T10:19:35.276Z,17.81
2023-05-10T10:22:02.133Z,17.44
2023-05-10T10:24:29.084Z,17.38
2023-05-10T10:27:04.637Z,16.74
2023-05-10T10:30:10.083Z,17.78
2023-05-10T10:33:20.175Z,17.03
2023-05-10T10:35:47.877Z,17.06
2023-05-10T10:38:15.041Z,16.83
2023-05-10T10:40:41.991Z,17.08
2023-05-10T10:43:29.158Z,17.21
2023-05-10T10:46:11.070Z,17.36
2023-05-10T10:48:38.189Z,17.26
2023-05-10T10:51:05.108Z,17.51
2023-05-10T10:53:32.900Z,17.43
2023-05-10T10:56:11.504Z,17.41
2023-05-10T10:58:40.209Z,16.83
2023-05-10T11:01:15.910Z,17.16
2023-05-10T11:04:16.268Z,17.01
2023-05-10T11:06:43.252Z,17.59
2023-05-10T11:09:11.947Z,17.53
2023-05-10T11:11:55.415Z,18.21
2023-05-10T11:14:23.342Z,18.24
2023-05-10T11:16:50.574Z,17.64
2023-05-10T11:19:19.110Z,17.52
2023-05-10T11:22:11.850Z,17.62
2023-05-10T11:24:38.846Z,18.21
2023-05-10T11:27:07.024Z,17.24
2023-05-10T11:29:34.008Z,17.29
2023-05-10T11:32:01.154Z,17.75
2023-05-10T11:34:33.040Z,18.03
2023-05-10T11:37:00.962Z,17.49
2023-05-10T11:39:32.282Z,17.34
2023-05-10T11:41:59.925Z,17.55
2023-05-10T11:44:33.731Z,17.44
2023-05-10T11:47:02.146Z,17.23
2023-05-10T11:49:29.292Z,17.44
2023-05-10T11:52:08.737Z,17.59
2023-05-10T11:54:35.990Z,17.28
2023-05-10T11:57:03.201Z,17.25
2023-05-10T11:59:30.369Z,17.26
2023-05-10T12:01:57.526Z,17.10
2023-05-10T12:04:24.895Z,17.28
2023-05-10T12:06:52.134Z,16.83
2023-05-10T12:09:23.044Z,16.89
2023-05-10T12:11:58.921Z,17.38
2023-05-10T12:14:26.011Z,17.37
2023-05-10T12:16:52.993Z,17.08
2023-05-10T12:19:20.937Z,16.53
2023-05-10T12:21:48.422Z,17.14
2023-05-10T12:24:15.374Z,16.99
2023-05-10T12:29:26.724Z,16.66
2023-05-10T12:31:58.398Z,17.20
2023-05-10T12:34:32.634Z,17.29
2023-05-10T12:37:00.290Z,17.61
2023-05-10T12:39:27.533Z,17.29
2023-05-10T12:41:54.466Z,16.61
2023-05-10T12:44:21.386Z,17.12
2023-05-10T12:46:48.311Z,16.78
2023-05-10T12:49:15.122Z,16.69
2023-05-10T12:51:42.025Z,16.53
2023-05-10T12:54:08.861Z,16.67
2023-05-10T12:56:35.801Z,16.83
2023-05-10T12:59:02.646Z,16.88
2023-05-10T13:01:29.668Z,16.55
2023-05-10T13:03:56.589Z,16.77
2023-05-10T13:06:23.572Z,16.82
2023-05-10T13:08:50.474Z,16.32
2023-05-10T13:11:17.412Z,16.17
2023-05-10T13:13:44.332Z,16.03
2023-05-10T13:16:11.312Z,16.28
2023-05-10T13:18:38.194Z,15.91
2023-05-10T13:21:05.171Z,16.13
2023-05-10T13:23:32.202Z,15.95
2023-05-10T13:25:59.160Z,16.22
2023-05-10T13:28:26.004Z,15.65
2023-05-10T13:30:52.914Z,15.91
2023-05-10T13:33:19.772Z,16.30
2023-05-10T13:35:46.771Z,15.86
2023-05-10T13:38:14.147Z,15.99
2023-05-10T13:40:41.127Z,16.18
2023-05-10T13:43:07.999Z,16.35
2023-05-10T13:45:37.478Z,16.12
2023-05-10T13:48:04.708Z,16.36
2023-05-10T13:50:31.674Z,15.84
2023-05-10T13:52:58.553Z,16.39
2023-05-10T13:55:25.465Z,16.27
2023-05-10T13:57:52.502Z,15.92
2023-05-10T14:00:19.668Z,15.94
2023-05-10T14:02:46.573Z,15.75
2023-05-10T14:05:14.036Z,15.86
2023-05-10T14:07:41.031Z,15.93
2023-05-10T14:10:08.269Z,15.82
2023-05-10T14:12:35.251Z,15.78
2023-05-10T14:15:02.225Z,15.66
2023-05-10T14:17:29.109Z,16.16
2023-05-10T14:19:56.070Z,16.00
2023-05-10T14:22:22.909Z,16.50
2023-05-10T14:24:52.319Z,16.36
2023-05-10T14:27:19.684Z,16.36
2023-05-10T14:29:46.812Z,16.42
2023-05-10T14:32:13.702Z,16.58
2023-05-10T14:34:40.688Z,16.13
2023-05-10T14:37:07.899Z,16.20
2023-05-10T14:39:34.744Z,16.04
2023-05-10T14:42:01.600Z,16.25
2023-05-10T14:44:31.101Z,16.07
2023-05-10T14:46:58.020Z,16.07
2023-05-10T14:49:25.041Z,15.51
2023-05-10T14:51:51.968Z,15.55
2023-05-10T14:54:18.921Z,15.15
2023-05-10T14:56:45.882Z,15.09
2023-05-10T14:59:12.856Z,15.23
2023-05-10T15:01:40.300Z,15.10
2023-05-10T15:04:07.954Z,14.63
2023-05-10T15:06:35.910Z,14.88
2023-05-10T15:09:03.933Z,15.06
2023-05-10T15:11:30.888Z,15.16
2023-05-10T15:13:57.805Z,14.95
2023-05-10T15:16:25.155Z,14.76
2023-05-10T15:18:52.341Z,14.79
2023-05-10T15:21:19.287Z,14.81
2023-05-10T15:23:46.276Z,15.16
2023-05-10T15:26:13.123Z,15.18
2023-05-10T15:28:40.061Z,14.80
2023-05-10T15:31:07.090Z,14.64
2023-05-10T15:33:34.141Z,14.61
2023-05-10T15:36:01.115Z,14.53
2023-05-10T15:38:28.028Z,14.65
2023-05-10T15:40:58.074Z,14.89
2023-05-10T15:43:25.180Z,14.72
2023-05-10T15:45:52.067Z,14.96
2023-05-10T15:48:19.173Z,15.06
2023-05-10T15:50:46.059Z,15.16
2023-05-10T15:53:13.044Z,14.71
2023-05-10T15:55:39.979Z,14.71
2023-05-10T15:58:06.985Z,14.54
2023-05-10T16:00:34.049Z,14.30
2023-05-10T16:03:01.159Z,14.22
2023-05-10T16:05:29.211Z,14.13
2023-05-10T16:07:56.132Z,14.27
2023-05-10T16:10:23.070Z,14.33
2023-05-10T16:12:50.072Z,14.49
2023-05-10T16:15:17.507Z,14.52
2023-05-10T16:17:44.828Z,14.25
2023-05-10T16:20:12.316Z,14.35
2023-05-10T16:22:39.518Z,14.44
2023-05-10T16:25:06.848Z,14.41
2023-05-10T16:27:33.871Z,14.45
2023-05-10T16:30:00.733Z,14.67
2023-05-10T16:32:27.824Z,14.56
2023-05-10T16:34:54.704Z,14.72
2023-05-10T16:37:21.706Z,14.63
2023-05-10T16:39:48.685Z,14.61
2023-05-10T16:42:15.632Z,14.70
2023-05-10T16:44:42.484Z,14.78
2023-05-10T16:47:09.586Z,14.81
2023-05-10T16:49:36.759Z,14.95
2023-05-10T16:52:04.052Z,14.92
2023-05-10T16:54:31.036Z,14.84
2023-05-10T16:56:57.968Z,14.75
2023-05-10T16:59:24.880Z,14.80
2023-05-10T17:01:51.995Z,14.65
2023-05-10T17:04:19.232Z,14.64
2023-05-10T17:06:46.163Z,14.73
2023-05-10T17:09:13.028Z,14.84
2023-05-10T17:11:39.945Z,14.73
2023-05-10T17:14:06.855Z,14.86
2023-05-10T17:16:33.915Z,14.72
2023-05-10T17:19:00.917Z,14.80
2023-05-10T17:21:27.922Z,14.79
2023-05-10T17:23:54.926Z,14.33
2023-05-10T17:26:21.795Z,14.64
2023-05-10T17:28:48.653Z,14.64
2023-05-10T17:31:15.828Z,14.60
2023-05-10T17:33:42.740Z,14.55
2023-05-10T17:36:09.701Z,14.61
2023-05-10T17:38:36.906Z,14.38
2023-05-10T17:41:04.198Z,14.47
2023-05-10T17:43:31.098Z,14.63
2023-05-10T17:45:58.209Z,14.55
2023-05-10T17:48:25.253Z,14.57
2023-05-10T17:50:52.326Z,14.56
2023-05-10T17:53:19.474Z,14.46
2023-05-10T17:55:46.676Z,14.33
2023-05-10T17:58:13.493Z,14.33
2023-05-10T18:00:40.592Z,14.25
2023-05-10T18:03:07.543Z,14.25
2023-05-10T18:05:38.811Z,14.14
2023-05-10T18:08:06.492Z,14.01
2023-05-10T18:10:33.429Z,14.04
2023-05-10T18:13:00.635Z,13.99
2023-05-10T18:15:27.600Z,13.95
2023-05-10T18:17:54.599Z,13.83
2023-05-10T18:20:21.513Z,13.81
2023-05-10T18:22:48.493Z,13.73
2023-05-10T18:25:15.571Z,13.49
2023-05-10T18:27:42.856Z,13.54
2023-05-10T18:30:10.057Z,13.57
2023-05-10T18:32:36.997Z,13.64
2023-05-10T18:35:04.029Z,13.68
2023-05-10T18:37:31.037Z,13.49
2023-05-10T18:39:57.972Z,13.47
2023-05-10T18:42:25.367Z,13.38
2023-05-10T18:44:52.492Z,13.34
2023-05-10T18:47:19.460Z,13.25
2023-05-10T18:49:46.429Z,13.21
2023-05-10T18:52:13.441Z,13.26
2023-05-10T18:54:40.317Z,13.22
2023-05-10T18:57:07.237Z,13.00
2023-05-10T18:59:34.278Z,13.06
2023-05-10T19:02:01.295Z,13.05
2023-05-10T19:04:28.270Z,12.94
2023-05-10T19:06:55.245Z,12.87
2023-05-10T19:09:22.378Z,12.43
2023-05-10T19:11:51.784Z,12.38
2023-05-10T19:14:18.853Z,12.67
2023-05-10T19:16:45.744Z,12.67
2023-05-10T19:19:14.488Z,12.55
2023-05-10T19:21:41.461Z,12.48
2023-05-10T19:24:08.381Z,12.50
2023-05-10T19:26:37.235Z,12.51
2023-05-10T19:29:05.250Z,12.44
2023-05-10T19:31:33.022Z,12.68
2023-05-10T19:34:01.003Z,12.78
2023-05-10T19:36:28.146Z,12.67
2023-05-10T19:38:55.140Z,12.65
2023-05-10T19:41:22.700Z,12.71
2023-05-10T19:43:49.569Z,12.65
2023-05-10T19:46:17.963Z,12.77
2023-05-10T19:48:47.001Z,12.81
2023-05-10T19:51:14.154Z,12.82
2023-05-10T19:53:41.067Z,12.83
2023-05-10T19:56:08.201Z,13.04
2023-05-10T19:58:35.254Z,13.00
2023-05-10T20:01:02.604Z,13.11
2023-05-10T20:03:30.145Z,12.89
2023-05-10T20:05:57.075Z,13.00
2023-05-10T20:08:24.917Z,13.10
2023-05-10T20:10:51.887Z,13.11
2023-05-10T20:13:18.746Z,13.11
2023-05-10T20:15:46.625Z,13.05
2023-05-10T20:18:14.505Z,13.00
2023-05-10T20:20:53.744Z,13.08
2023-05-10T20:23:23.635Z,13.01
2023-05-10T20:26:20.979Z,13.09
2023-05-10T20:28:51.973Z,13.07
2023-05-10T20:31:19.807Z,13.20
2023-05-10T20:33:47.065Z,13.19
2023-05-10T20:36:14.218Z,13.18
2023-05-10T20:38:41.791Z,13.09
2023-05-10T20:41:08.644Z,13.20
2023-05-10T20:43:35.662Z,13.17
2023-05-10T20:46:02.846Z,13.22
2023-05-10T20:48:29.967Z,13.10
2023-05-10T20:50:57.778Z,13.11
2023-05-10T20:53:25.255Z,13.07
2023-05-10T20:55:52.143Z,12.81
2023-05-10T20:58:19.497Z,12.92
2023-05-10T21:00:46.837Z,12.75
2023-05-10T21:03:16.821Z,12.77
2023-05-10T21:05:43.780Z,12.60
2023-05-10T21:08:10.994Z,12.72
2023-05-10T21:10:37.863Z,12.59
2023-05-10T21:13:07.655Z,12.63
2023-05-10T21:15:34.572Z,12.43
2023-05-10T21:18:01.645Z,12.40
2023-05-10T21:20:30.090Z,12.26
2023-05-10T21:22:57.061Z,12.11
2023-05-10T21:25:23.927Z,11.97
2023-05-10T21:27:50.956Z,11.98
2023-05-10T21:30:19.193Z,11.91
2023-05-10T21:32:48.724Z,11.96
2023-05-10T21:35:15.689Z,11.96
2023-05-10T21:37:42.782Z,11.93
2023-05-10T21:40:28.883Z,11.99
2023-05-10T21:42:57.996Z,11.96
2023-05-10T21:45:24.818Z,11.77
2023-05-10T21:47:51.786Z,11.76
2023-05-10T21:50:18.958Z,11.81
2023-05-10T21:52:46.070Z,11.75
2023-05-10T21:55:12.974Z,11.73
2023-05-10T21:57:39.962Z,11.64
2023-05-10T22:00:07.609Z,11.68
2023-05-10T22:02:34.628Z,11.66
2023-05-10T22:05:02.573Z,11.79
2023-05-10T22:07:33.135Z,11.71
2023-05-10T22:10:00.215Z,11.85
2023-05-10T22:12:27.366Z,11.85
2023-05-10T22:15:09.135Z,12.08
2023-05-10T22:17:38.644Z,12.08
2023-05-10T22:20:07.961Z,11.91
2023-05-10T22:22:34.944Z,12.19
2023-05-10T22:25:01.860Z,12.18
2023-05-10T22:27:28.896Z,12.21
2023-05-10T22:29:56.640Z,12.23
2023-05-10T22:32:23.540Z,12.24
2023-05-10T22:34:50.436Z,12.21
2023-05-10T22:37:17.372Z,12.23
2023-05-10T22:39:46.152Z,12.12
2023-05-10T22:42:13.089Z,12.09
2023-05-10T22:44:39.898Z,12.14
2023-05-10T22:47:06.975Z,12.19
2023-05-10T22:49:34.350Z,12.08
2023-05-10T22:52:01.331Z,12.08
2023-05-10T22:54:28.193Z,12.04
2023-05-10T22:56:56.331Z,12.21
2023-05-10T22:59:23.544Z,12.09
2023-05-10T23:01:52.741Z,12.05
2023-05-10T23:04:19.639Z,11.82
2023-05-10T23:06:46.825Z,12.03
2023-05-10T23:09:13.662Z,12.04
2023-05-10T23:11:40.634Z,11.96
2023-05-10T23:14:07.792Z,11.99
2023-05-10T23:16:34.913Z,11.94
2023-05-10T23:19:01.946Z,11.84
2023-05-10T23:21:31.284Z,11.86
2023-05-10T23:23:59.174Z,11.79
2023-05-10T23:26:26.069Z,11.85
2023-05-10T23:28:52.931Z,11.65
2023-05-10T23:31:19.851Z,11.65
2023-05-10T23:33:46.714Z,11.49
2023-05-10T23:36:13.731Z,11.43
2023-05-10T23:38:40.599Z,11.54
2023-05-10T23:41:07.433Z,11.46
2023-05-10T23:43:34.280Z,11.45
2023-05-10T23:46:01.671Z,11.29
2023-05-10T23:48:28.933Z,11.29
2023-05-10T23:50:55.825Z,11.24
2023-05-10T23:53:25.099Z,11.16
2023-05-10T23:55:51.877Z,11.14
2023-05-10T23:58:18.656Z,11.20
